Time;durP1;ratioP1;P1;durP2;ratioP2;P2;SDS_P1;SDS_P2;PMS_P1;PMS_P2;Temp;Humidity;BMP_temperature;BMP_pressure;BME280_temperature;BME280_humidity;BME280_pressure;Samples;Min_cycle;Max_cycle;Signal;HPM_P1;HPM_P2
2021/05/21 00:01:40;;;;;;;17.83;7.65;;;;;;;11.51;79.40;99002.14;129967;1101;23220;-66
2021/05/21 00:04:09;;;;;;;13.00;7.20;;;;;;;11.52;79.44;99006.50;129935;1101;23143;-66
2021/05/21 00:06:38;;;;;;;14.18;7.30;;;;;;;11.55;79.51;99007.84;129985;1101;22659;-66
2021/05/21 00:09:07;;;;;;;12.98;6.35;;;;;;;11.54;79.37;99007.02;129964;1101;22582;-65
2021/05/21 00:11:37;;;;;;;10.15;6.03;;;;;;;11.57;78.99;99014.66;130010;1101;22634;-66
2021/05/21 00:14:06;;;;;;;9.80;6.53;;;;;;;11.57;78.69;99016.56;130001;1101;22538;-66
2021/05/21 00:16:35;;;;;;;12.75;7.13;;;;;;;11.57;78.78;99009.20;129979;1101;22610;-66
2021/05/21 00:19:03;;;;;;;12.38;6.73;;;;;;;11.57;78.59;99017.39;129989;1101;22633;-66
2021/05/21 00:21:32;;;;;;;13.25;6.45;;;;;;;11.58;78.33;99016.30;129923;1101;22586;-65
2021/05/21 00:24:01;;;;;;;11.08;6.55;;;;;;;11.56;78.06;99023.12;129974;1101;22529;-66
2021/05/21 00:26:30;;;;;;;9.50;5.68;;;;;;;11.54;77.87;99017.94;129667;1102;22601;-66
2021/05/21 00:28:59;;;;;;;7.35;4.13;;;;;;;11.52;76.97;99017.42;130029;1101;22620;-66
2021/05/21 00:31:27;;;;;;;9.28;3.40;;;;;;;11.48;76.50;99024.52;129951;1101;22539;-66
2021/05/21 00:33:56;;;;;;;6.20;3.20;;;;;;;11.47;76.44;99024.78;130004;1101;22532;-66
2021/05/21 00:36:24;;;;;;;6.78;3.10;;;;;;;11.46;75.84;99032.15;129977;1101;22560;-66
2021/05/21 00:38:53;;;;;;;3.88;3.08;;;;;;;11.45;75.59;99025.06;130005;1101;22702;-66
2021/05/21 00:41:22;;;;;;;3.20;2.30;;;;;;;11.45;75.32;99030.52;130010;1101;22537;-66
2021/05/21 00:43:57;;;;;;;6.20;2.75;;;;;;;11.43;75.29;99029.97;130007;1101;23576;-66
2021/05/21 00:46:25;;;;;;;4.15;2.68;;;;;;;11.41;74.96;99026.69;129904;1101;22698;-66
2021/05/21 00:48:53;;;;;;;4.55;3.75;;;;;;;11.45;74.86;99032.42;130033;1101;22513;-66
2021/05/21 00:51:22;;;;;;;4.10;2.95;;;;;;;11.44;74.85;99033.52;129975;1101;23395;-65
2021/05/21 00:53:51;;;;;;;4.10;2.90;;;;;;;11.43;74.87;99043.61;129995;1101;22589;-66
2021/05/21 00:56:19;;;;;;;4.08;2.75;;;;;;;11.44;74.97;99044.42;127797;1101;22776;-65
2021/05/21 00:58:47;;;;;;;3.75;2.65;;;;;;;11.43;74.72;99042.79;125446;1101;22750;-65
2021/05/21 01:01:17;;;;;;;6.78;3.00;;;;;;;11.43;74.87;99042.79;130219;1098;23216;-65
2021/05/21 01:03:45;;;;;;;5.60;3.40;;;;;;;11.40;74.64;99048.81;130196;1098;22629;-66
2021/05/21 01:06:13;;;;;;;7.33;3.90;;;;;;;11.37;74.79;99044.72;130323;1098;22608;-66
2021/05/21 01:08:42;;;;;;;3.85;2.98;;;;;;;11.35;74.68;99046.91;130182;1098;22603;-66
2021/05/21 01:11:10;;;;;;;4.08;2.95;;;;;;;11.31;74.69;99045.81;130224;1098;22644;-66
2021/05/21 01:13:38;;;;;;;7.25;2.58;;;;;;;11.25;74.68;99047.71;130260;1098;22511;-66
2021/05/21 01:16:07;;;;;;;3.88;3.13;;;;;;;11.22;74.82;99045.55;130248;1098;22525;-66
2021/05/21 01:18:37;;;;;;;4.60;3.08;;;;;;;11.20;74.67;99045.00;130213;1098;22697;-66
2021/05/21 01:21:10;;;;;;;4.68;2.83;;;;;;;11.19;74.80;99050.73;130175;1098;23323;-65
2021/05/21 01:23:39;;;;;;;3.43;2.55;;;;;;;11.15;75.12;99047.72;130209;1098;22520;-65
2021/05/21 01:26:07;;;;;;;5.55;2.55;;;;;;;11.13;75.20;99047.17;130286;1098;22528;-65
2021/05/21 01:28:35;;;;;;;3.03;2.25;;;;;;;11.13;74.96;99040.91;130249;1098;22542;-66
2021/05/21 01:31:05;;;;;;;4.30;2.40;;;;;;;11.12;74.90;99052.90;130016;1100;22538;-66
2021/05/21 01:33:33;;;;;;;2.55;2.10;;;;;;;11.09;75.02;99053.47;129982;1101;23230;-66
2021/05/21 01:36:01;;;;;;;6.23;2.15;;;;;;;11.06;74.99;99054.83;130275;1098;22627;-66
2021/05/21 01:38:30;;;;;;;7.73;2.50;;;;;;;11.05;74.94;99055.91;129962;1101;22795;-66
2021/05/21 01:40:59;;;;;;;6.33;2.40;;;;;;;11.04;74.66;99054.27;129945;1101;22579;-66
2021/05/21 01:43:27;;;;;;;3.20;2.23;;;;;;;11.03;74.90;99062.72;129920;1101;22543;-66
2021/05/21 01:45:56;;;;;;;2.63;2.03;;;;;;;11.00;74.77;99061.35;129956;1101;22545;-66
2021/05/21 01:48:25;;;;;;;5.98;2.75;;;;;;;10.99;74.62;99068.71;129930;1101;22593;-66
2021/05/21 01:51:03;;;;;;;5.43;2.15;;;;;;;10.97;74.52;99061.89;129992;1101;22555;-65
2021/05/21 01:53:35;;;;;;;4.18;2.13;;;;;;;10.93;74.51;99063.55;129954;1101;23742;-65
2021/05/21 01:56:05;;;;;;;4.27;2.20;;;;;;;10.89;74.52;99068.71;129955;1101;22627;-65
2021/05/21 01:58:34;;;;;;;5.30;2.30;;;;;;;10.87;74.53;99081.78;129929;1101;22631;-65
2021/05/21 02:01:02;;;;;;;2.63;1.70;;;;;;;10.86;74.50;99085.59;130003;1101;22619;-65
2021/05/21 02:03:31;;;;;;;3.93;2.18;;;;;;;10.86;74.42;99084.78;129967;1101;22769;-65
2021/05/21 02:06:00;;;;;;;3.03;1.75;;;;;;;10.84;74.45;99084.23;129990;1101;22587;-65
2021/05/21 02:08:28;;;;;;;2.58;1.93;;;;;;;10.83;74.60;99082.59;129980;1101;23491;-65
2021/05/21 02:10:56;;;;;;;2.93;1.90;;;;;;;10.81;74.48;99084.80;130130;1098;22504;-65
2021/05/21 02:13:25;;;;;;;4.38;1.88;;;;;;;10.80;74.56;99089.42;130189;1098;22788;-65
2021/05/21 02:15:53;;;;;;;2.63;1.88;;;;;;;10.80;74.45;99089.42;130115;1098;22534;-66
2021/05/21 02:18:22;;;;;;;6.28;2.35;;;;;;;10.78;74.56;99094.32;130243;1098;23333;-66
2021/05/21 02:20:50;;;;;;;3.30;2.28;;;;;;;10.76;74.68;99096.49;130201;1098;22549;-65
2021/05/21 02:23:19;;;;;;;4.78;2.18;;;;;;;10.75;74.63;99096.76;130181;1099;22633;-66
2021/05/21 02:25:47;;;;;;;6.63;2.30;;;;;;;10.73;74.54;99101.66;130144;1098;22621;-66
2021/05/21 02:28:15;;;;;;;10.68;3.35;;;;;;;10.71;74.65;99101.92;130209;1098;22600;-66
2021/05/21 02:30:44;;;;;;;4.03;2.80;;;;;;;10.69;74.76;99101.36;130169;1098;22910;-66
2021/05/21 02:33:12;;;;;;;4.58;2.45;;;;;;;10.69;74.71;99104.09;130158;1099;22666;-66
2021/05/21 02:35:40;;;;;;;4.43;2.83;;;;;;;10.67;74.96;99103.56;130165;1098;23691;-66
2021/05/21 02:38:09;;;;;;;4.73;2.78;;;;;;;10.66;75.04;99104.66;130015;1098;23449;-66
2021/05/21 02:40:37;;;;;;;4.83;2.40;;;;;;;10.65;75.21;99110.37;130232;1098;22604;-65
2021/05/21 02:43:07;;;;;;;5.83;3.10;;;;;;;10.63;75.17;99106.00;130007;1101;23587;-65
2021/05/21 02:45:36;;;;;;;3.75;2.60;;;;;;;10.62;75.24;99101.64;130130;1098;22528;-66
2021/05/21 02:48:04;;;;;;;6.88;2.90;;;;;;;10.63;75.24;99110.63;130184;1098;23313;-66
2021/05/21 02:50:33;;;;;;;7.08;2.98;;;;;;;10.67;75.17;99110.92;130177;1099;22654;-65
2021/05/21 02:53:01;;;;;;;5.10;2.98;;;;;;;10.69;75.81;99108.72;130193;1098;22736;-66
2021/05/21 02:55:29;;;;;;;4.35;2.78;;;;;;;10.72;75.59;99105.46;130226;1098;22552;-65
2021/05/21 02:58:50;;;;;;;3.75;2.40;;;;;;;10.75;75.70;99100.30;125571;1091;22763;-65
2021/05/21 03:01:18;;;;;;;3.13;2.20;;;;;;;10.77;75.53;99110.94;125319;1101;22780;-65
2021/05/21 03:03:46;;;;;;;3.50;2.30;;;;;;;10.77;75.58;99109.03;129806;1101;22617;-66
2021/05/21 03:06:15;;;;;;;5.50;2.83;;;;;;;10.75;75.51;99116.66;129939;1101;22574;-65
2021/05/21 03:08:43;;;;;;;4.80;2.73;;;;;;;10.76;75.56;99117.47;129884;1101;22543;-66
2021/05/21 03:11:11;;;;;;;3.60;2.53;;;;;;;10.77;75.58;99125.38;130002;1101;22646;-66
2021/05/21 03:13:41;;;;;;;6.90;2.13;;;;;;;10.80;75.43;99124.03;129983;1101;22539;-66
2021/05/21 03:16:10;;;;;;;7.35;2.73;;;;;;;10.82;75.34;99125.38;130018;1101;22600;-66
2021/05/21 03:18:39;;;;;;;3.23;2.13;;;;;;;10.86;75.36;99134.66;129960;1101;23294;-66
2021/05/21 03:21:08;;;;;;;8.23;2.88;;;;;;;10.88;75.45;99126.22;130012;1101;22564;-66
2021/05/21 03:23:36;;;;;;;4.33;2.55;;;;;;;10.89;75.64;99123.22;129939;1101;22555;-66
2021/05/21 03:26:05;;;;;;;3.85;2.13;;;;;;;10.94;75.31;99125.97;130019;1101;22607;-66
2021/05/21 03:28:33;;;;;;;3.28;2.53;;;;;;;11.01;75.61;99130.32;129922;1101;22701;-66
2021/05/21 03:31:02;;;;;;;4.55;2.65;;;;;;;11.07;75.55;99142.88;129979;1101;23662;-66
2021/05/21 03:33:30;;;;;;;4.25;2.50;;;;;;;11.10;75.20;99143.17;129953;1101;22755;-66
2021/05/21 03:35:59;;;;;;;6.13;2.20;;;;;;;11.16;75.00;99146.70;129995;1101;22549;-65
2021/05/21 03:38:27;;;;;;;4.95;2.48;;;;;;;11.18;74.83;99142.63;129957;1101;22581;-66
2021/05/21 03:41:05;;;;;;;4.05;2.80;;;;;;;11.23;74.82;99150.00;130017;1101;22550;-66
2021/05/21 03:43:34;;;;;;;5.43;2.33;;;;;;;11.27;74.94;99142.89;129986;1101;23426;-66
2021/05/21 03:46:02;;;;;;;4.20;2.80;;;;;;;11.30;74.54;99142.35;130015;1101;22551;-66
2021/05/21 03:48:31;;;;;;;2.38;1.80;;;;;;;11.34;74.37;99148.91;129942;1101;23350;-66
2021/05/21 03:50:59;;;;;;;3.38;2.48;;;;;;;11.36;74.24;99152.19;130013;1101;23461;-67
2021/05/21 03:53:28;;;;;;;6.10;2.20;;;;;;;11.38;74.22;99146.47;129696;1101;23417;-66
2021/05/21 03:55:56;;;;;;;5.70;2.38;;;;;;;11.40;73.96;99150.53;129973;1101;22730;-66
2021/05/21 03:58:25;;;;;;;3.73;2.73;;;;;;;11.43;74.12;99160.08;129926;1101;22591;-66
2021/05/21 04:00:54;;;;;;;10.03;2.30;;;;;;;11.50;74.49;99158.73;129792;1101;22653;-66
2021/05/21 04:03:23;;;;;;;2.98;2.30;;;;;;;11.59;74.04;99156.27;129973;1101;22554;-66
2021/05/21 04:05:51;;;;;;;3.40;2.28;;;;;;;11.70;74.08;99163.35;128702;1101;22765;-66
2021/05/21 04:08:21;;;;;;;2.23;1.85;;;;;;;11.82;73.75;99166.67;125375;1101;22797;-65
2021/05/21 04:10:49;;;;;;;3.20;2.53;;;;;;;11.94;73.45;99166.38;129989;1101;22546;-66
2021/05/21 04:13:19;;;;;;;5.00;2.28;;;;;;;12.04;73.53;99163.63;129970;1101;22610;-66
2021/05/21 04:15:47;;;;;;;3.03;1.88;;;;;;;12.08;72.85;99163.89;129960;1101;23477;-66
2021/05/21 04:18:16;;;;;;;3.63;2.28;;;;;;;12.13;72.99;99169.33;130000;1101;22664;-66
2021/05/21 04:21:04;;;;;;;4.35;2.25;;;;;;;12.15;72.91;99159.77;129933;1101;22615;-66
2021/05/21 04:23:32;;;;;;;4.58;2.45;;;;;;;12.19;72.40;99166.32;129734;1102;22544;-66
2021/05/21 04:26:01;;;;;;;7.05;2.33;;;;;;;12.21;72.50;99171.51;129959;1101;22661;-66
2021/05/21 04:28:30;;;;;;;2.80;2.25;;;;;;;12.20;71.72;99169.87;129989;1101;22586;-66
2021/05/21 04:30:58;;;;;;;4.23;2.08;;;;;;;12.21;71.88;99176.97;129939;1101;22659;-66
2021/05/21 04:33:27;;;;;;;9.53;2.65;;;;;;;12.22;71.53;99176.70;129959;1101;22636;-66
2021/05/21 04:35:55;;;;;;;6.45;2.50;;;;;;;12.23;71.60;99177.52;129961;1101;22759;-66
2021/05/21 04:38:24;;;;;;;2.20;2.00;;;;;;;12.25;71.51;99178.88;129688;1104;22652;-66
2021/05/21 04:40:52;;;;;;;5.20;3.18;;;;;;;12.30;71.73;99187.05;129622;1104;22530;-66
2021/05/21 04:43:23;;;;;;;6.23;2.95;;;;;;;12.34;71.54;99190.05;129992;1101;22585;-66
2021/05/21 04:45:51;;;;;;;6.55;2.75;;;;;;;12.38;71.71;99188.41;129968;1101;22611;-66
2021/05/21 04:48:20;;;;;;;4.43;2.70;;;;;;;12.44;71.76;99191.92;130020;1101;22653;-66
2021/05/21 04:50:50;;;;;;;8.80;2.65;;;;;;;12.50;71.72;99196.28;129949;1101;22651;-66
2021/05/21 04:53:18;;;;;;;4.75;2.70;;;;;;;12.56;71.16;99195.97;130007;1101;22587;-66
2021/05/21 04:55:47;;;;;;;6.05;2.43;;;;;;;12.61;70.98;99204.16;129928;1101;23162;-66
2021/05/21 04:58:15;;;;;;;4.28;2.50;;;;;;;12.66;70.85;99208.80;129999;1101;23410;-66
2021/05/21 05:00:44;;;;;;;3.93;2.30;;;;;;;12.72;71.01;99204.93;129960;1101;22676;-66
2021/05/21 05:03:16;;;;;;;3.90;2.23;;;;;;;12.77;70.02;99209.57;129984;1101;23491;-66
2021/05/21 05:05:45;;;;;;;2.55;2.33;;;;;;;12.81;70.04;99218.86;129983;1101;22546;-65
2021/05/21 05:08:16;;;;;;;5.58;2.60;;;;;;;12.87;70.50;99214.98;130019;1101;22590;-66
2021/05/21 05:10:45;;;;;;;3.00;2.70;;;;;;;12.97;69.75;99217.70;129993;1101;23201;-66
2021/05/21 05:13:13;;;;;;;3.53;2.13;;;;;;;13.07;69.64;99218.45;129717;1101;22740;-66
2021/05/21 05:15:42;;;;;;;6.93;3.05;;;;;;;13.24;68.91;99222.77;130029;1101;22500;-66
2021/05/21 05:18:11;;;;;;;3.55;2.20;;;;;;;13.40;69.06;99216.92;129975;1101;23188;-66
2021/05/21 05:20:43;;;;;;;4.75;2.43;;;;;;;13.62;68.12;99218.41;130013;1101;22586;-66
2021/05/21 05:23:12;;;;;;;3.88;2.60;;;;;;;13.83;67.04;99211.67;129921;1101;22587;-66
2021/05/21 05:25:44;;;;;;;4.00;2.45;;;;;;;14.05;65.81;99216.67;130004;1101;22683;-66
2021/05/21 05:28:12;;;;;;;3.95;2.38;;;;;;;14.28;65.51;99221.39;129936;1101;22557;-66
2021/05/21 05:30:41;;;;;;;2.75;1.83;;;;;;;14.52;64.31;99218.70;130015;1101;22593;-66
2021/05/21 05:33:11;;;;;;;2.63;1.80;;;;;;;14.78;63.71;99220.03;129913;1101;22564;-66
2021/05/21 05:35:41;;;;;;;5.05;2.20;;;;;;;15.05;62.70;99222.16;129033;1101;24203;-66
2021/05/21 05:38:10;;;;;;;2.23;1.55;;;;;;;15.32;61.28;99228.92;125183;1097;22787;-65
2021/05/21 05:40:39;;;;;;;4.78;1.80;;;;;;;15.49;60.42;99218.24;129943;1101;22795;-66
2021/05/21 05:43:07;;;;;;;6.25;1.90;;;;;;;15.67;59.87;99214.70;129922;1101;23225;-66
2021/05/21 05:45:35;;;;;;;3.85;1.73;;;;;;;15.82;59.67;99219.95;130004;1101;23827;-66
2021/05/21 05:48:04;;;;;;;2.07;1.60;;;;;;;16.01;59.44;99224.60;129953;1101;22570;-66
2021/05/21 05:50:33;;;;;;;3.13;1.90;;;;;;;16.13;58.50;99216.69;129975;1101;23492;-66
2021/05/21 05:53:01;;;;;;;5.18;1.78;;;;;;;16.18;58.07;99222.89;129954;1101;22576;-66
2021/05/21 05:55:33;;;;;;;2.40;1.83;;;;;;;16.14;57.00;99223.82;129958;1101;22552;-66
2021/05/21 05:58:02;;;;;;;2.83;1.70;;;;;;;16.04;57.20;99218.48;129914;1101;22661;-66
2021/05/21 06:00:35;;;;;;;1.65;1.55;;;;;;;15.99;56.20;99227.65;129943;1101;22630;-66
2021/05/21 06:03:11;;;;;;;7.80;1.43;;;;;;;15.84;56.79;99222.41;129877;1101;22537;-65
2021/05/21 06:05:39;;;;;;;2.55;1.73;;;;;;;15.70;57.05;99219.61;129957;1101;22592;-63
2021/05/21 06:08:08;;;;;;;1.95;1.58;;;;;;;15.61;57.16;99210.39;129948;1101;22595;-63
2021/05/21 06:10:40;;;;;;;3.87;1.87;;;;;;;15.52;57.88;99223.97;130029;1101;22602;-62
2021/05/21 06:13:09;;;;;;;4.28;1.55;;;;;;;15.44;57.55;99216.38;129988;1101;22639;-62
2021/05/21 06:15:38;;;;;;;1.65;1.43;;;;;;;15.39;57.27;99213.73;129955;1101;22664;-62
2021/05/21 06:18:17;;;;;;;6.28;1.70;;;;;;;15.36;58.36;99216.24;129943;1101;23250;-62
2021/05/21 06:20:46;;;;;;;4.00;1.40;;;;;;;15.30;58.13;99220.98;129867;1101;22522;-63
2021/05/21 06:23:15;;;;;;;5.18;1.60;;;;;;;15.24;57.00;99224.92;129892;1101;24020;-62
2021/05/21 06:28:22;;;;;;;2.63;1.53;;;;;;;15.13;58.40;99221.52;129693;1104;22615;-62
2021/05/21 06:30:51;;;;;;;2.33;1.40;;;;;;;15.11;57.59;99225.66;129913;1101;22558;-62
2021/05/21 06:33:20;;;;;;;2.30;1.38;;;;;;;15.07;57.63;99224.61;129960;1101;22672;-62
2021/05/21 06:35:49;;;;;;;2.80;1.45;;;;;;;15.01;58.52;99225.77;129906;1101;22614;-63
2021/05/21 06:38:19;;;;;;;3.98;1.88;;;;;;;14.96;58.02;99232.16;129972;1101;23326;-63
2021/05/21 06:40:52;;;;;;;2.95;1.55;;;;;;;14.90;57.62;99233.32;129904;1101;22668;-62
2021/05/21 06:43:21;;;;;;;2.05;1.60;;;;;;;14.85;58.45;99236.14;129997;1101;22604;-60
2021/05/21 06:45:49;;;;;;;2.40;1.58;;;;;;;14.80;59.43;99234.27;129965;1101;22570;-60
2021/05/21 06:48:18;;;;;;;3.35;1.50;;;;;;;14.78;59.61;99238.41;129990;1101;23365;-62
2021/05/21 06:50:46;;;;;;;4.58;1.78;;;;;;;14.78;60.39;99246.64;129943;1101;22554;-61
2021/05/21 06:53:14;;;;;;;2.13;1.53;;;;;;;14.79;60.53;99238.13;129946;1101;22652;-62
2021/05/21 06:55:47;;;;;;;6.03;1.65;;;;;;;14.83;60.11;99244.66;129942;1101;24799;-61
2021/05/21 06:58:17;;;;;;;3.75;1.70;;;;;;;14.87;60.00;99247.61;129984;1101;23447;-61
2021/05/21 07:00:49;;;;;;;4.30;1.60;;;;;;;14.85;60.11;99244.38;129944;1101;23746;-61
2021/05/21 07:03:17;;;;;;;4.38;1.60;;;;;;;14.81;59.82;99246.88;129957;1101;22587;-62
2021/05/21 07:05:47;;;;;;;4.80;1.95;;;;;;;14.82;60.42;99244.95;129956;1101;22612;-65
2021/05/21 07:08:16;;;;;;;3.53;1.43;;;;;;;14.84;60.28;99238.07;129963;1101;22579;-65
2021/05/21 07:10:45;;;;;;;2.23;1.35;;;;;;;14.89;60.44;99239.09;129990;1101;23421;-65
2021/05/21 07:13:15;;;;;;;6.25;1.50;;;;;;;14.93;60.02;99251.13;130017;1101;22627;-65
2021/05/21 07:15:44;;;;;;;3.38;1.38;;;;;;;14.95;59.81;99240.68;129968;1101;23239;-65
2021/05/21 07:18:14;;;;;;;4.23;1.45;;;;;;;15.00;60.20;99246.93;129950;1101;22611;-65
2021/05/21 07:20:45;;;;;;;4.53;1.68;;;;;;;15.04;59.50;99249.88;130005;1101;22523;-65
2021/05/21 07:23:14;;;;;;;2.78;1.73;;;;;;;15.08;59.65;99249.01;129960;1101;22573;-65
2021/05/21 07:25:53;;;;;;;2.48;1.50;;;;;;;15.12;60.08;99252.80;129983;1101;22701;-65
2021/05/21 07:28:24;;;;;;;2.33;1.53;;;;;;;15.19;59.15;99255.17;129978;1101;22565;-65
2021/05/21 07:30:52;;;;;;;2.53;1.55;;;;;;;15.22;58.59;99257.33;129994;1101;22590;-65
2021/05/21 07:33:21;;;;;;;3.05;1.63;;;;;;;15.22;58.59;99262.83;129804;1101;22569;-65
2021/05/21 07:35:49;;;;;;;3.80;1.60;;;;;;;15.23;59.13;99264.46;128722;1096;26229;-67
2021/05/21 07:38:17;;;;;;;2.03;1.48;;;;;;;15.25;58.18;99266.91;129844;1101;22644;-65
2021/05/21 07:40:46;;;;;;;4.83;2.03;;;;;;;15.21;58.54;99255.70;129987;1101;22570;-64
2021/05/21 07:43:14;;;;;;;4.20;2.00;;;;;;;15.20;59.03;99263.11;129971;1101;22678;-64
2021/05/21 07:45:44;;;;;;;6.15;2.15;;;;;;;15.25;58.80;99261.42;130010;1101;23865;-64
2021/05/21 07:48:12;;;;;;;3.15;1.80;;;;;;;15.31;58.38;99260.22;129893;1101;22657;-64
2021/05/21 07:50:41;;;;;;;4.45;1.53;;;;;;;15.37;58.10;99268.11;129948;1101;22696;-65
2021/05/21 07:53:10;;;;;;;3.73;1.43;;;;;;;15.42;57.79;99268.05;129939;1101;22550;-65
2021/05/21 07:55:47;;;;;;;1.80;1.08;;;;;;;15.47;57.36;99269.89;129989;1101;23472;-65
2021/05/21 07:58:15;;;;;;;2.08;1.33;;;;;;;15.53;56.32;99268.72;129916;1101;22826;-65
2021/05/21 08:00:45;;;;;;;2.75;1.70;;;;;;;15.54;55.84;99267.60;129684;1101;22539;-65
2021/05/21 08:03:15;;;;;;;4.95;1.83;;;;;;;15.55;56.09;99267.34;129819;1101;22523;-65
2021/05/21 08:05:45;;;;;;;3.70;2.35;;;;;;;15.54;56.19;99265.67;129798;1101;22568;-65
2021/05/21 08:08:22;;;;;;;6.88;1.90;;;;;;;15.57;57.02;99274.47;129890;1101;22647;-65
2021/05/21 08:10:54;;;;;;;4.43;1.83;;;;;;;15.60;57.24;99266.42;129871;1101;22770;-65
2021/05/21 08:13:23;;;;;;;7.55;2.58;;;;;;;15.65;57.78;99260.05;129855;1101;23515;-65
2021/05/21 08:16:13;;;;;;;5.13;2.08;;;;;;;15.71;57.84;99250.64;128020;1101;22763;-66
2021/05/21 08:18:45;;;;;;;4.38;2.25;;;;;;;15.78;57.56;99262.05;130278;1098;22573;-65
2021/05/21 08:21:17;;;;;;;3.07;1.67;;;;;;;15.81;56.54;99264.20;130193;1097;22516;-65
2021/05/21 08:23:46;;;;;;;4.68;1.65;;;;;;;15.85;56.00;99263.32;130324;1098;22751;-65
2021/05/21 08:26:15;;;;;;;3.58;1.80;;;;;;;15.89;56.62;99264.33;130401;1098;22530;-65
2021/05/21 08:28:44;;;;;;;1.55;1.38;;;;;;;15.90;56.73;99265.97;130257;1098;22616;-65
2021/05/21 08:31:13;;;;;;;1.00;0.90;;;;;;;15.88;55.36;99262.70;130400;1098;22517;-66
2021/05/21 08:33:45;;;;;;;3.00;1.05;;;;;;;15.90;54.68;99262.40;130368;1098;22535;-65
2021/05/21 08:36:14;;;;;;;1.90;1.10;;;;;;;15.95;53.80;99262.33;130378;1098;22651;-65
2021/05/21 08:38:46;;;;;;;4.50;1.30;;;;;;;16.00;53.98;99264.19;130309;1098;22554;-65
2021/05/21 08:41:25;;;;;;;1.90;1.10;;;;;;;16.05;53.88;99264.09;130394;1098;23409;-65
2021/05/21 08:43:55;;;;;;;3.45;1.38;;;;;;;16.07;53.83;99267.35;130346;1098;22535;-65
2021/05/21 08:46:26;;;;;;;1.67;1.20;;;;;;;16.10;54.26;99262.08;128242;1093;22785;-66
2021/05/21 08:49:01;;;;;;;1.40;0.93;;;;;;;16.18;54.32;99268.80;129968;1099;22754;-66
2021/05/21 08:51:30;;;;;;;3.70;1.20;;;;;;;16.28;53.17;99260.41;130376;1098;23540;-66
2021/05/21 08:54:03;;;;;;;2.18;1.00;;;;;;;16.38;53.51;99271.22;130313;1098;22570;-66
2021/05/21 08:56:32;;;;;;;2.93;1.48;;;;;;;16.46;53.34;99267.75;130393;1098;22502;-65
2021/05/21 08:59:01;;;;;;;1.15;0.90;;;;;;;16.51;52.47;99264.11;130382;1098;23558;-66
2021/05/21 09:01:30;;;;;;;4.60;1.10;;;;;;;16.52;52.20;99276.74;130305;1098;23110;-66
2021/05/21 09:04:18;;;;;;;2.30;1.00;;;;;;;16.51;51.35;99275.11;130363;1098;22583;-66
2021/05/21 09:06:47;;;;;;;3.30;1.35;;;;;;;16.51;52.08;99266.86;130347;1098;22607;-66
2021/05/21 09:09:15;;;;;;;1.98;0.90;;;;;;;16.48;51.65;99268.27;130361;1098;22602;-66
2021/05/21 09:11:45;;;;;;;1.60;1.03;;;;;;;16.47;51.56;99279.57;130350;1098;22657;-66
2021/05/21 09:14:15;;;;;;;3.20;1.28;;;;;;;16.43;52.35;99281.31;130339;1098;22645;-66
2021/05/21 09:16:45;;;;;;;3.90;1.33;;;;;;;16.43;53.10;99282.13;130298;1098;22577;-66
2021/05/21 09:19:22;;;;;;;1.88;1.10;;;;;;;16.48;52.81;99283.95;130372;1098;22501;-66
2021/05/21 09:22:03;;;;;;;2.13;1.58;;;;;;;16.52;52.25;99291.31;130321;1097;22637;-66
2021/05/21 09:24:36;;;;;;;1.08;1.00;;;;;;;16.55;52.78;99282.45;130342;1098;22650;-66
2021/05/21 09:27:10;;;;;;;2.40;1.38;;;;;;;16.59;52.26;99291.72;130288;1098;22551;-66
2021/05/21 09:29:46;;;;;;;3.80;1.03;;;;;;;16.61;50.94;99291.41;130391;1098;22611;-66
2021/05/21 09:32:28;;;;;;;3.83;1.00;;;;;;;16.58;50.51;99292.05;130329;1098;22514;-66
2021/05/21 09:35:07;;;;;;;4.13;1.00;;;;;;;16.55;51.20;99290.71;130348;1098;23620;-66
2021/05/21 09:37:35;;;;;;;4.25;1.20;;;;;;;16.54;50.38;99291.01;130341;1098;22571;-66
2021/05/21 09:40:06;;;;;;;3.98;1.10;;;;;;;16.51;50.68;99286.11;130210;1098;22544;-66
2021/05/21 09:42:45;;;;;;;1.80;1.30;;;;;;;16.48;49.85;99276.52;129911;1098;22759;-66
2021/05/21 09:45:15;;;;;;;3.75;1.15;;;;;;;16.45;50.51;99274.38;129925;1098;22584;-64
2021/05/21 09:47:50;;;;;;;5.48;1.30;;;;;;;16.45;51.56;99285.38;130302;1098;22592;-64
2021/05/21 09:50:20;;;;;;;4.23;0.88;;;;;;;16.48;49.50;99273.77;130324;1098;22548;-65
2021/05/21 09:52:49;;;;;;;2.53;0.80;;;;;;;16.56;49.45;99284.09;129925;1098;22610;-65
2021/05/21 09:55:17;;;;;;;1.43;0.90;;;;;;;16.65;48.79;99273.22;129957;1098;22615;-65
2021/05/21 09:57:46;;;;;;;3.95;1.05;;;;;;;16.72;48.61;99281.09;129885;1098;22594;-67
2021/05/21 10:00:15;;;;;;;1.98;1.05;;;;;;;16.74;48.95;99276.07;129938;1098;22585;-65
2021/05/21 10:02:45;;;;;;;1.40;0.98;;;;;;;16.77;49.04;99272.72;129936;1098;22600;-65
2021/05/21 10:05:13;;;;;;;1.90;1.40;;;;;;;16.81;48.18;99277.31;129648;1098;22711;-65
2021/05/21 10:07:42;;;;;;;1.83;0.83;;;;;;;16.83;46.82;99264.08;130083;1098;22642;-65
2021/05/21 10:10:11;;;;;;;0.95;0.90;;;;;;;16.88;46.15;99276.92;129998;1098;22658;-65
2021/05/21 10:12:40;;;;;;;2.23;0.85;;;;;;;16.94;46.58;99268.25;129582;1098;22752;-66
2021/05/21 10:15:09;;;;;;;1.85;1.00;;;;;;;16.99;45.88;99264.59;129779;1099;22747;-66
2021/05/21 10:17:40;;;;;;;1.05;0.90;;;;;;;17.05;45.15;99259.77;130327;1098;22643;-66
2021/05/21 10:20:11;;;;;;;1.45;1.35;;;;;;;17.07;45.83;99269.36;130326;1098;22536;-66
2021/05/21 10:22:41;;;;;;;1.73;1.30;;;;;;;17.10;47.07;99262.43;130288;1098;22701;-67
2021/05/21 10:25:23;;;;;;;5.10;1.33;;;;;;;17.18;46.77;99262.52;129980;1098;22612;-66
2021/05/21 10:27:53;;;;;;;1.93;1.10;;;;;;;17.28;46.49;99262.31;129859;1098;23727;-66
2021/05/21 10:30:25;;;;;;;0.90;0.80;;;;;;;17.37;45.50;99264.33;130254;1098;23334;-66
2021/05/21 10:33:12;;;;;;;2.30;1.20;;;;;;;17.42;45.53;99264.23;129965;1098;22560;-66
2021/05/21 10:36:23;;;;;;;1.98;0.98;;;;;;;17.47;44.77;99269.61;130297;1098;22604;-66
2021/05/21 10:39:12;;;;;;;3.45;1.08;;;;;;;17.42;42.90;99272.49;130200;1098;22593;-66
2021/05/21 10:42:22;;;;;;;1.90;1.05;;;;;;;17.35;44.75;99261.06;130279;1098;23797;-66
2021/05/21 10:45:20;;;;;;;1.18;0.88;;;;;;;17.39;43.16;99262.09;130230;1098;22560;-67
2021/05/21 10:48:06;;;;;;;2.28;1.50;;;;;;;17.39;42.90;99256.58;130318;1098;22534;-66
2021/05/21 10:50:40;;;;;;;2.15;0.80;;;;;;;17.36;41.91;99258.00;130291;1098;23326;-66
2021/05/21 10:53:09;;;;;;;1.55;0.70;;;;;;;17.29;42.95;99258.44;130342;1097;22559;-66
2021/05/21 10:55:53;;;;;;;1.93;1.10;;;;;;;17.27;43.86;99257.11;130264;1098;22617;-66
2021/05/21 10:58:33;;;;;;;3.30;1.20;;;;;;;17.28;44.33;99262.31;130325;1098;22549;-65
2021/05/21 11:01:04;;;;;;;2.20;0.75;;;;;;;17.32;43.17;99259.73;130254;1098;22644;-66
2021/05/21 11:03:56;;;;;;;1.30;1.13;;;;;;;17.35;44.50;99253.63;130342;1098;23356;-66
2021/05/21 11:06:25;;;;;;;2.70;1.20;;;;;;;17.43;43.53;99249.33;130328;1098;22665;-66
2021/05/21 11:08:58;;;;;;;3.03;1.08;;;;;;;17.45;44.43;99250.66;130335;1098;22523;-66
2021/05/21 11:12:00;;;;;;;2.13;1.13;;;;;;;17.48;44.31;99262.97;130261;1098;23421;-66
2021/05/21 11:14:40;;;;;;;1.00;0.90;;;;;;;17.51;43.65;99256.84;130271;1098;22563;-66
2021/05/21 11:17:10;;;;;;;1.18;1.08;;;;;;;17.53;43.53;99252.66;130361;1098;22689;-66
2021/05/21 11:19:46;;;;;;;4.15;2.03;;;;;;;17.57;42.34;99255.63;130304;1098;22647;-66
2021/05/21 11:22:35;;;;;;;7.95;1.70;;;;;;;17.60;41.65;99252.25;130348;1098;22534;-66
2021/05/21 11:25:04;;;;;;;3.90;1.13;;;;;;;17.57;43.36;99256.44;130337;1098;23778;-66
2021/05/21 11:27:37;;;;;;;3.38;1.65;;;;;;;17.60;43.66;99255.80;130308;1098;22554;-66
2021/05/21 11:30:07;;;;;;;1.70;1.10;;;;;;;17.65;43.26;99249.39;130321;1098;22545;-67
2021/05/21 11:32:38;;;;;;;2.13;1.23;;;;;;;17.70;42.51;99252.04;130293;1098;22585;-66
2021/05/21 11:35:09;;;;;;;2.83;1.25;;;;;;;17.74;41.11;99253.05;130294;1098;22572;-65
2021/05/21 11:37:39;;;;;;;4.83;0.98;;;;;;;17.78;42.20;99259.55;130329;1098;22560;-66
2021/05/21 11:40:08;;;;;;;1.05;0.93;;;;;;;17.84;42.07;99254.74;130344;1098;22527;-66
2021/05/21 11:42:38;;;;;;;1.20;1.10;;;;;;;17.89;41.97;99251.88;130332;1098;22542;-66
2021/05/21 11:45:07;;;;;;;2.55;1.00;;;;;;;17.95;41.04;99254.17;130354;1098;23262;-66